aviador You're here:

KAHN Decoded Metar

ATHENS in GA, USA
Report Time2017-09-26 02:51:00
UTC Time2017-09-26 03:48:25
Flight Rules vfr VFR
Wind060° at 05 kt
W.Decomp.*RWY 09: 4.5 kt HW 2.3 kt LCW
RWY 02: 3.7 kt HW 3.4 kt RCW
W.Rank060° ranks 2
Current wind is below 060° avg. (6.1)
Visibility9999 m
Phenomena:N/A
Clouds:N/A
Expected CloudBase > 1,200 ft AGL from Temp-Dew spread
CeilingNone
Temp21°C (ISA +8)
Dew Point18°C (83% RH)
QNH1015 hPa
Density Alt1,896 ft
Elevation801 ft
Report Wrong Elevation
Raw Report
METAR KAHN 260251Z AUTO 06005KT 10SM CLR 21/18 A2997 RMK AO2 SLP140
T02110178 51010=

Extra information for KAHN:More info

Metar Taf Metar & Taf Last 4 Metars F.Rules Stats Wind Profile Meteogram Temp Stats Airport Information Weather charts Add Link Nearby VenuesMetar ALERT Operation Metar Decoded Social comments

AIRNAV info for KAHN